This is the latest recevied weather packets stored in our database for station/object EA2ESA-13. If no packets are shown the sender has not sent any weather packets the latest 10 day(s).
| Time | Temp. | Humidity | Pressure | Rain* | Wind** | Luminosity | Snow |
|---|---|---|---|---|---|---|---|
| 1777633341 | 24.44° C | 63% | 1023.4 hPa | 0 mm | 0 m/s | - | - |
| 1777632739 | 23.89° C | 66% | 1023.5 hPa | 0 mm | 0 m/s | - | - |
| 1777632137 | 23.33° C | 69% | 1023.5 hPa | 0 mm | 0 m/s | - | - |
| 1777631537 | 22.78° C | 70% | 1023.6 hPa | 0 mm | 0 m/s | - | - |
| 1777630936 | 22.22° C | 72% | 1023.9 hPa | 0 mm | 0 m/s | - | - |
| 1777630335 | 21.67° C | 74% | 1024 hPa | 0 mm | 0 m/s | - | - |
| 1777629734 | 21.11° C | 76% | 1024.2 hPa | 0 mm | 0 m/s | - | - |
| 1777629134 | 20.56° C | 78% | 1024.3 hPa | 0 mm | 0 m/s | - | - |
| 1777628533 | 20° C | 81% | 1024.3 hPa | 0 mm | 0 m/s | - | - |
| 1777627332 | 18.33° C | 81% | 1024.5 hPa | 0 mm | 0 m/s | - | - |
| 1777626731 | 18.33° C | 80% | 1024.6 hPa | 0 mm | 0 m/s | - | - |
| 1777626130 | 18.33° C | 80% | 1024.6 hPa | 0 mm | 0 m/s | - | - |
| 1777625530 | 18.33° C | 81% | 1024.5 hPa | 0 mm | 0 m/s | - | - |
| 1777624925 | 18.33° C | 82% | 1024.5 hPa | 0 mm | 0 m/s | - | - |
| 1777624322 | 17.78° C | 82% | 1024.6 hPa | 0 mm | 0 m/s | - | - |
| 1777623721 | 17.78° C | 82% | 1024.6 hPa | 0 mm | 0 m/s | - | - |
| 1777623120 | 17.78° C | 82% | 1024.6 hPa | 0 mm | 0 m/s | - | - |
| 1777622519 | 17.22° C | 82% | 1024.7 hPa | 0 mm | 0 m/s | - | - |
| 1777621919 | 17.22° C | 82% | 1024.8 hPa | 0 mm | 0 m/s | - | - |
| 1777621318 | 17.22° C | 83% | 1024.9 hPa | 0 mm | 0 m/s | - | - |
| 1777620717 | 17.22° C | 83% | 1024.7 hPa | 0 mm | 0 m/s | - | - |
| 1777620116 | 16.67° C | 83% | 1024.8 hPa | 0 mm | 0 m/s | - | - |
| 1777619516 | 16.67° C | 83% | 1024.9 hPa | 0 mm | 0 m/s | - | - |
| 1777618915 | 16.67° C | 83% | 1024.7 hPa | 0 mm | 0 m/s | - | - |
| 1777618314 | 16.67° C | 83% | 1024.7 hPa | 0 mm | 0 m/s | - | - |
* Rain latest hour (hover to see other rain measurements)
** Current wind speed in m/s (hover to see current wind gust speed)